Time;durP1;ratioP1;P1;durP2;ratioP2;P2;SDS_P1;SDS_P2;PMS_P1;PMS_P2;Temp;Humidity;BMP_temperature;BMP_pressure;BME280_temperature;BME280_humidity;BME280_pressure;Samples;Min_cycle;Max_cycle;Signal;HPM_P1;HPM_P2
2022/02/12 00:00:52;;;;;;;;;;;;;;;-0.34;71.38;97995.44;4983606;28;19972;-76
2022/02/12 00:03:18;;;;;;;;;;;;;;;-0.35;71.25;98001.53;4982578;28;19963;-76
2022/02/12 00:05:44;;;;;;;;;;;;;;;-0.35;71.04;97991.22;4984596;28;19962;-75
2022/02/12 00:08:10;;;;;;;;;;;;;;;-0.36;71.42;97992.16;4982017;28;20017;-76
2022/02/12 00:10:36;;;;;;;;;;;;;;;-0.37;71.21;98000.00;4993413;28;19951;-76
2022/02/12 00:13:08;;;;;;;;;;;;;;;-0.38;71.17;98003.50;4983501;28;20002;-76
2022/02/12 00:15:34;;;;;;;;;;;;;;;-0.41;71.11;97992.47;4981276;28;19959;-76
2022/02/12 00:18:00;;;;;;;;;;;;;;;-0.44;71.16;97985.00;4984373;28;19961;-76
2022/02/12 00:20:26;;;;;;;;;;;;;;;-0.46;70.73;97984.28;4969349;28;20422;-76
2022/02/12 00:22:52;;;;;;;;;;;;;;;-0.49;70.93;97988.81;4966126;28;19962;-76
2022/02/12 00:25:18;;;;;;;;;;;;;;;-0.51;71.13;97983.75;4981417;28;19957;-76
2022/02/12 00:27:44;;;;;;;;;;;;;;;-0.54;71.71;97984.00;4986594;28;20073;-76
2022/02/12 00:30:10;;;;;;;;;;;;;;;-0.55;71.56;97987.50;4988599;28;19963;-76
2022/02/12 00:32:36;;;;;;;;;;;;;;;-0.55;71.38;97986.69;4970612;28;20314;-76
2022/02/12 00:35:02;;;;;;;;;;;;;;;-0.59;71.76;97982.69;4986508;28;19959;-77
2022/02/12 00:37:29;;;;;;;;;;;;;;;-0.62;71.10;97974.22;4983289;28;19956;-76
2022/02/12 00:39:55;;;;;;;;;;;;;;;-0.63;71.20;97976.91;4987958;28;19964;-76
2022/02/12 00:42:22;;;;;;;;;;;;;;;-0.67;71.15;97978.91;4988688;28;20397;-76
2022/02/12 00:44:48;;;;;;;;;;;;;;;-0.69;70.82;97985.09;4993041;28;19963;-75
2022/02/12 00:47:14;;;;;;;;;;;;;;;-0.71;70.77;97984.38;4985292;28;19969;-76
2022/02/12 00:49:40;;;;;;;;;;;;;;;-0.75;70.72;97970.09;4985080;28;19957;-77
2022/02/12 00:52:06;;;;;;;;;;;;;;;-0.78;70.54;97978.81;4991996;28;20413;-76
2022/02/12 00:54:32;;;;;;;;;;;;;;;-0.78;70.67;97978.81;4987768;28;20415;-76
2022/02/12 00:56:59;;;;;;;;;;;;;;;-0.83;70.78;97973.19;4967924;28;19964;-76
2022/02/12 00:59:25;;;;;;;;;;;;;;;-0.86;70.89;97974.22;4999112;28;19983;-76
2022/02/12 01:01:51;;;;;;;;;;;;;;;-0.91;71.02;97978.88;4991091;28;19962;-76
2022/02/12 01:04:17;;;;;;;;;;;;;;;-0.94;70.84;97979.09;4971171;28;20406;-76
2022/02/12 01:06:43;;;;;;;;;;;;;;;-0.95;71.21;97977.44;4988429;28;19958;-76
2022/02/12 01:09:09;;;;;;;;;;;;;;;-0.98;71.44;97975.09;4982600;28;20036;-76
2022/02/12 01:11:35;;;;;;;;;;;;;;;-1.01;71.35;97975.28;4987810;28;19967;-76
2022/02/12 01:14:00;;;;;;;;;;;;;;;-1.02;70.95;97982.19;4990429;28;19970;-76
2022/02/12 01:16:26;;;;;;;;;;;;;;;-1.03;70.89;97980.56;4988261;28;20021;-76
2022/02/12 01:18:52;;;;;;;;;;;;;;;-1.04;71.28;97981.47;4992988;28;20004;-76
2022/02/12 01:21:19;;;;;;;;;;;;;;;-1.05;71.25;97973.84;4988311;28;19959;-76
2022/02/12 01:23:46;;;;;;;;;;;;;;;-1.07;71.65;97971.41;4986809;28;19954;-76
2022/02/12 01:26:12;;;;;;;;;;;;;;;-1.07;72.11;97968.84;4983980;28;19960;-76
2022/02/12 01:28:38;;;;;;;;;;;;;;;-1.11;72.17;97962.25;4991364;28;20056;-76
2022/02/12 01:31:03;;;;;;;;;;;;;;;-1.13;71.67;97964.13;4987099;28;19968;-76
2022/02/12 01:33:29;;;;;;;;;;;;;;;-1.13;72.58;97971.84;4981044;28;20006;-76
2022/02/12 01:35:55;;;;;;;;;;;;;;;-1.14;72.29;97969.38;4988585;28;19990;-76
2022/02/12 01:38:21;;;;;;;;;;;;;;;-1.17;72.38;97961.88;4970457;28;20460;-76
2022/02/12 01:40:48;;;;;;;;;;;;;;;-1.21;72.40;97960.44;4969415;28;19967;-78
2022/02/12 01:43:14;;;;;;;;;;;;;;;-1.25;72.24;97962.38;4982370;28;19957;-76
2022/02/12 01:45:41;;;;;;;;;;;;;;;-1.27;72.22;97953.94;4982189;28;20406;-77
2022/02/12 01:48:07;;;;;;;;;;;;;;;-1.28;71.98;97952.28;4987493;28;19969;-76
2022/02/12 01:50:33;;;;;;;;;;;;;;;-1.31;72.36;97952.50;4979531;28;20423;-76
2022/02/12 01:53:00;;;;;;;;;;;;;;;-1.33;72.28;97952.63;4986770;28;19956;-76
2022/02/12 01:55:26;;;;;;;;;;;;;;;-1.34;72.25;97947.59;4985723;28;19974;-76
2022/02/12 01:57:52;;;;;;;;;;;;;;;-1.36;72.30;97946.88;4987377;28;19957;-76
2022/02/12 02:00:18;;;;;;;;;;;;;;;-1.39;72.39;97942.75;4988902;28;19960;-76
2022/02/12 02:02:44;;;;;;;;;;;;;;;-1.40;72.20;97943.69;4989307;28;19959;-77
2022/02/12 02:05:14;;;;;;;;;;;;;;;-1.42;72.55;97939.56;4982430;28;19953;-76
2022/02/12 02:07:41;;;;;;;;;;;;;;;-1.44;72.55;97931.97;4984437;28;19969;-76
2022/02/12 02:10:08;;;;;;;;;;;;;;;-1.46;72.32;97924.34;4984764;28;19953;-76
2022/02/12 02:12:34;;;;;;;;;;;;;;;-1.51;72.43;97910.97;4992361;28;19965;-76
2022/02/12 02:15:00;;;;;;;;;;;;;;;-1.51;72.48;97923.00;4982747;28;19952;-76
2022/02/12 02:17:26;;;;;;;;;;;;;;;-1.54;72.87;97921.47;4983353;28;19969;-76
2022/02/12 02:19:52;;;;;;;;;;;;;;;-1.57;72.83;97908.00;4987131;28;19962;-76
2022/02/12 02:22:21;;;;;;;;;;;;;;;-1.59;72.70;97907.28;4986004;28;19948;-76
2022/02/12 02:24:47;;;;;;;;;;;;;;;-1.63;73.23;97907.47;4989555;28;19962;-77
2022/02/12 02:27:19;;;;;;;;;;;;;;;-1.66;72.75;97899.16;4967939;28;19969;-76
2022/02/12 02:29:45;;;;;;;;;;;;;;;-1.68;72.67;97901.00;4986296;28;19958;-76
2022/02/12 02:32:11;;;;;;;;;;;;;;;-1.69;72.62;97900.19;4980333;28;19987;-76
2022/02/12 02:34:38;;;;;;;;;;;;;;;-1.69;73.35;97907.09;4982539;28;19954;-76
2022/02/12 02:37:04;;;;;;;;;;;;;;;-1.70;74.24;97905.44;4983864;28;20295;-76
2022/02/12 02:39:30;;;;;;;;;;;;;;;-1.72;74.46;97908.13;4992797;28;20330;-76
2022/02/12 02:41:56;;;;;;;;;;;;;;;-1.70;74.91;97905.44;4985119;28;19951;-76
2022/02/12 02:44:22;;;;;;;;;;;;;;;-1.70;74.27;97898.56;4984591;28;20074;-76
2022/02/12 02:46:48;;;;;;;;;;;;;;;-1.76;74.07;97890.44;4984055;28;19968;-76
2022/02/12 02:49:14;;;;;;;;;;;;;;;-1.83;75.06;97892.59;4996764;28;19978;-76
2022/02/12 02:57:09;;;;;;;;;;;;;;;-1.82;76.04;97883.16;4983773;28;20441;-76
2022/02/12 02:59:35;;;;;;;;;;;;;;;-1.81;75.67;97877.88;4986290;28;19958;-76
2022/02/12 03:02:01;;;;;;;;;;;;;;;-1.79;75.35;97873.44;4986360;28;19963;-76
2022/02/12 03:04:27;;;;;;;;;;;;;;;-1.77;75.12;97870.78;4982395;28;19957;-76
2022/02/12 03:06:53;;;;;;;;;;;;;;;-1.76;74.82;97864.72;4981338;28;20006;-76
2022/02/12 03:09:19;;;;;;;;;;;;;;;-1.76;74.89;97865.53;4986577;28;19952;-76
2022/02/12 03:11:45;;;;;;;;;;;;;;;-1.76;74.05;97867.28;4986813;28;19958;-76
2022/02/12 03:14:11;;;;;;;;;;;;;;;-1.76;74.31;97864.72;4962905;28;19962;-76
2022/02/12 03:16:38;;;;;;;;;;;;;;;-1.78;74.44;97864.00;4984713;28;19956;-76
2022/02/12 03:19:04;;;;;;;;;;;;;;;-1.78;75.17;97861.44;4965648;28;19959;-76
2022/02/12 03:21:30;;;;;;;;;;;;;;;-1.80;74.70;97869.25;4989493;28;19945;-76
2022/02/12 03:23:56;;;;;;;;;;;;;;;-1.81;74.06;97864.19;4984784;28;19957;-76
2022/02/12 03:26:23;;;;;;;;;;;;;;;-1.82;74.04;97853.09;4981074;28;19964;-76
2022/02/12 03:28:49;;;;;;;;;;;;;;;-1.85;74.35;97863.59;4981608;28;19972;-77
2022/02/12 03:31:14;;;;;;;;;;;;;;;-1.88;73.77;97853.53;4990594;28;19955;-76
2022/02/12 03:33:41;;;;;;;;;;;;;;;-1.90;73.75;97852.81;4985953;28;20372;-76
2022/02/12 03:36:07;;;;;;;;;;;;;;;-1.92;73.93;97846.94;4996880;28;19963;-76
2022/02/12 03:38:35;;;;;;;;;;;;;;;-1.94;73.54;97848.78;4984032;28;19951;-76
2022/02/12 03:41:04;;;;;;;;;;;;;;;-1.97;73.58;97849.84;4983061;28;19957;-76
2022/02/12 03:43:31;;;;;;;;;;;;;;;-2.00;73.72;97846.63;4983979;28;19955;-76
2022/02/12 03:45:57;;;;;;;;;;;;;;;-2.02;73.85;97849.31;4987566;28;20439;-76
2022/02/12 03:48:24;;;;;;;;;;;;;;;-2.03;74.17;97844.28;4984920;28;19975;-76
2022/02/12 03:50:52;;;;;;;;;;;;;;;-2.01;74.24;97847.56;4978594;28;19964;-76
2022/02/12 03:53:18;;;;;;;;;;;;;;;-2.01;74.48;97845.00;4984505;28;19960;-76
2022/02/12 03:55:44;;;;;;;;;;;;;;;-1.99;75.17;97841.41;4986737;28;19978;-76
2022/02/12 03:58:15;;;;;;;;;;;;;;;-1.99;74.78;97841.41;4984010;28;19992;-76
2022/02/12 04:00:41;;;;;;;;;;;;;;;-1.98;74.89;97835.31;4984327;28;19953;-76
2022/02/12 04:03:07;;;;;;;;;;;;;;;-2.00;75.16;97823.50;4984929;28;19960;-76
2022/02/12 04:05:34;;;;;;;;;;;;;;;-2.00;74.74;97818.34;4987751;28;19954;-76
2022/02/12 04:08:00;;;;;;;;;;;;;;;-2.02;74.56;97815.06;4985842;28;19998;-76
2022/02/12 04:10:26;;;;;;;;;;;;;;;-2.03;74.91;97816.81;4987132;28;19962;-75
2022/02/12 04:12:52;;;;;;;;;;;;;;;-2.06;74.78;97817.88;4981058;28;19962;-76
2022/02/12 04:15:18;;;;;;;;;;;;;;;-2.08;73.88;97798.31;4984434;28;19951;-77
2022/02/12 04:17:45;;;;;;;;;;;;;;;-2.09;74.61;97801.81;4985626;28;19985;-76
2022/02/12 04:20:12;;;;;;;;;;;;;;;-2.10;73.63;97795.03;4986848;28;19961;-76
2022/02/12 04:22:38;;;;;;;;;;;;;;;-2.15;74.30;97799.66;4982237;28;20307;-76
2022/02/12 04:25:05;;;;;;;;;;;;;;;-2.17;74.32;97794.63;4985905;28;20010;-76
2022/02/12 04:27:31;;;;;;;;;;;;;;;-2.20;74.29;97794.03;4985898;28;19960;-76
2022/02/12 04:29:57;;;;;;;;;;;;;;;-2.21;74.41;97790.63;4983556;28;20342;-76
2022/02/12 04:32:24;;;;;;;;;;;;;;;-2.25;74.08;97782.31;4964906;28;19950;-76
2022/02/12 04:34:51;;;;;;;;;;;;;;;-2.27;74.38;97784.16;4981330;28;19962;-76
2022/02/12 04:37:17;;;;;;;;;;;;;;;-2.29;74.25;97780.03;4980430;28;20319;-77
2022/02/12 04:39:43;;;;;;;;;;;;;;;-2.31;74.29;97771.63;4984080;28;19959;-76
2022/02/12 04:42:11;;;;;;;;;;;;;;;-2.34;73.99;97780.34;4990046;28;19959;-79
2022/02/12 04:44:40;;;;;;;;;;;;;;;-2.35;74.32;97783.03;4977621;28;19956;-76
2022/02/12 04:47:06;;;;;;;;;;;;;;;-2.37;74.21;97777.16;4981326;28;19949;-78
2022/02/12 04:49:33;;;;;;;;;;;;;;;-2.41;74.04;97771.44;4986182;28;19974;-76
2022/02/12 04:51:59;;;;;;;;;;;;;;;-2.41;74.13;97762.91;4983289;28;19963;-76
2022/02/12 04:54:25;;;;;;;;;;;;;;;-2.42;73.73;97768.97;4975975;28;20331;-76
2022/02/12 04:56:51;;;;;;;;;;;;;;;-2.43;73.56;97769.91;4986888;28;19970;-77
2022/02/12 04:59:17;;;;;;;;;;;;;;;-2.48;73.83;97759.91;4983682;28;19964;-76
2022/02/12 05:01:43;;;;;;;;;;;;;;;-2.51;73.60;97755.81;4986208;28;19956;-77
2022/02/12 05:04:10;;;;;;;;;;;;;;;-2.53;73.68;97755.09;4984867;28;19947;-76
2022/02/12 05:06:36;;;;;;;;;;;;;;;-2.53;73.66;97749.13;4981897;28;19949;-76
2022/02/12 05:09:03;;;;;;;;;;;;;;;-2.55;73.84;97753.56;4982568;28;19971;-76
2022/02/12 05:11:29;;;;;;;;;;;;;;;-2.55;73.75;97745.84;4984433;28;19953;-76
2022/02/12 05:13:55;;;;;;;;;;;;;;;-2.57;73.53;97742.56;4989108;28;19953;-76
2022/02/12 05:16:20;;;;;;;;;;;;;;;-2.59;73.70;97744.41;4985338;28;19998;-77
2022/02/12 05:18:46;;;;;;;;;;;;;;;-2.61;73.43;97736.00;4985828;28;19964;-76
2022/02/12 05:21:12;;;;;;;;;;;;;;;-2.63;73.62;97745.53;4988506;28;19997;-76
2022/02/12 05:23:38;;;;;;;;;;;;;;;-2.64;73.36;97746.47;4986881;28;19959;-76
2022/02/12 05:26:04;;;;;;;;;;;;;;;-2.67;73.77;97744.91;4983754;28;19960;-76
2022/02/12 05:28:30;;;;;;;;;;;;;;;-2.70;73.50;97743.38;4985267;28;19974;-76
2022/02/12 05:30:56;;;;;;;;;;;;;;;-2.73;73.71;97746.19;4986960;28;20057;-77
2022/02/12 05:33:22;;;;;;;;;;;;;;;-2.75;73.49;97745.44;5003698;28;19980;-76
2022/02/12 05:35:49;;;;;;;;;;;;;;;-2.77;73.99;97742.16;4988124;28;20374;-76
2022/02/12 05:38:15;;;;;;;;;;;;;;;-2.79;73.77;97735.47;4984541;28;19957;-76
2022/02/12 05:40:41;;;;;;;;;;;;;;;-2.82;73.91;97736.50;4981400;28;19976;-77
2022/02/12 05:43:07;;;;;;;;;;;;;;;-2.85;73.43;97721.31;4987151;28;19952;-76
2022/02/12 05:45:33;;;;;;;;;;;;;;;-2.86;73.65;97722.22;4989784;28;19993;-76
2022/02/12 05:47:59;;;;;;;;;;;;;;;-2.88;73.30;97713.81;4986518;28;19979;-76
2022/02/12 05:50:29;;;;;;;;;;;;;;;-2.90;73.65;97719.06;4982101;28;19960;-76
2022/02/12 05:52:55;;;;;;;;;;;;;;;-2.92;73.95;97720.91;4984638;28;19963;-77
2022/02/12 05:55:21;;;;;;;;;;;;;;;-2.92;74.06;97713.19;4988983;28;19974;-76
2022/02/12 05:57:47;;;;;;;;;;;;;;;-2.91;74.31;97717.41;4984783;28;19968;-76
2022/02/12 06:00:13;;;;;;;;;;;;;;;-2.93;73.84;97711.53;4985327;28;19963;-77
2022/02/12 06:02:39;;;;;;;;;;;;;;;-2.93;74.08;97714.13;4982392;28;19953;-76
2022/02/12 06:05:05;;;;;;;;;;;;;;;-2.94;74.55;97711.63;4986504;28;19962;-76
2022/02/12 06:07:31;;;;;;;;;;;;;;;-2.94;73.75;97703.94;4987009;28;19964;-76
2022/02/12 06:09:57;;;;;;;;;;;;;;;-2.95;73.94;97710.81;4990426;28;19961;-76
2022/02/12 06:12:23;;;;;;;;;;;;;;;-2.96;74.58;97711.75;4980619;28;20017;-76
2022/02/12 06:14:49;;;;;;;;;;;;;;;-2.97;74.68;97707.53;4986430;28;19956;-77
2022/02/12 06:17:15;;;;;;;;;;;;;;;-2.97;74.51;97702.41;4988613;28;19961;-77
2022/02/12 06:19:41;;;;;;;;;;;;;;;-2.95;74.89;97702.31;4985064;28;19954;-76
2022/02/12 06:22:07;;;;;;;;;;;;;;;-2.94;74.88;97702.22;4984057;28;19957;-76
2022/02/12 06:24:32;;;;;;;;;;;;;;;-2.93;74.66;97700.47;4989062;28;19956;-76
2022/02/12 06:27:04;;;;;;;;;;;;;;;-2.92;74.70;97710.63;4986393;28;20038;-77
2022/02/12 06:29:29;;;;;;;;;;;;;;;-2.93;74.63;97706.41;4981690;28;19965;-76
2022/02/12 06:31:56;;;;;;;;;;;;;;;-2.94;74.79;97704.78;4984825;28;19958;-77
2022/02/12 06:34:22;;;;;;;;;;;;;;;-2.94;74.65;97711.63;4987545;28;19963;-76
2022/02/12 06:36:48;;;;;;;;;;;;;;;-2.94;74.74;97707.34;4986027;28;19961;-76
2022/02/12 06:39:14;;;;;;;;;;;;;;;-2.95;75.42;97712.56;4989225;28;20020;-76
2022/02/12 06:41:40;;;;;;;;;;;;;;;-2.96;74.66;97709.19;4979942;28;20016;-75
2022/02/12 06:44:06;;;;;;;;;;;;;;;-2.97;74.83;97711.84;4986152;28;19973;-77
2022/02/12 06:46:31;;;;;;;;;;;;;;;-2.97;75.26;97717.00;4990458;28;19955;-76
2022/02/12 06:48:57;;;;;;;;;;;;;;;-2.98;74.94;97708.47;4984723;28;20027;-76
2022/02/12 06:51:23;;;;;;;;;;;;;;;-2.96;75.43;97705.78;4983568;28;20046;-76
2022/02/12 06:53:49;;;;;;;;;;;;;;;-2.95;74.92;97717.72;4983797;28;20355;-76
2022/02/12 06:56:15;;;;;;;;;;;;;;;-2.93;74.98;97710.72;4987979;28;19986;-77
2022/02/12 06:58:41;;;;;;;;;;;;;;;-2.91;74.87;97703.75;4985771;28;20417;-76
2022/02/12 07:01:07;;;;;;;;;;;;;;;-2.89;74.92;97702.72;4985158;28;19947;-76
2022/02/12 07:03:33;;;;;;;;;;;;;;;-2.84;75.03;97714.44;4989272;28;19953;-77
2022/02/12 07:05:59;;;;;;;;;;;;;;;-2.79;75.11;97718.34;4987206;28;20293;-76
2022/02/12 07:08:25;;;;;;;;;;;;;;;-2.73;74.72;97711.94;4983396;28;20003;-76
2022/02/12 07:10:50;;;;;;;;;;;;;;;-2.56;74.46;97716.78;4984448;28;19956;-76
2022/02/12 07:13:16;;;;;;;;;;;;;;;-2.25;74.39;97715.50;4986848;28;19964;-76
2022/02/12 07:15:42;;;;;;;;;;;;;;;-1.76;73.61;97711.25;4987027;28;19989;-76
2022/02/12 07:18:08;;;;;;;;;;;;;;;-1.16;72.58;97698.34;4979961;28;19957;-76
2022/02/12 07:20:34;;;;;;;;;;;;;;;-0.59;71.15;97682.03;4980839;28;19961;-76
2022/02/12 07:23:00;;;;;;;;;;;;;;;-0.01;69.69;97667.19;4984869;28;20056;-76
2022/02/12 07:25:26;;;;;;;;;;;;;;;0.53;68.33;97651.78;4986150;28;20011;-78
2022/02/12 07:27:55;;;;;;;;;;;;;;;1.00;67.35;97649.59;4979732;28;19958;-77
2022/02/12 07:30:24;;;;;;;;;;;;;;;1.40;66.36;97636.72;4985724;28;19959;-78
2022/02/12 07:32:51;;;;;;;;;;;;;;;1.66;64.94;97636.28;4987362;28;19971;-77
2022/02/12 07:35:17;;;;;;;;;;;;;;;1.97;64.31;97621.47;4985109;28;19959;-78
2022/02/12 07:37:44;;;;;;;;;;;;;;;2.35;63.99;97613.88;4980606;28;19964;-77
2022/02/12 07:40:11;;;;;;;;;;;;;;;2.71;63.34;97614.09;4985799;28;19968;-77
2022/02/12 07:42:37;;;;;;;;;;;;;;;2.97;62.45;97604.78;4963723;28;19948;-77
2022/02/12 07:45:03;;;;;;;;;;;;;;;3.18;62.26;97608.94;4985489;28;19959;-79
2022/02/12 07:47:29;;;;;;;;;;;;;;;3.46;61.57;97604.56;4987935;28;19967;-78
2022/02/12 07:49:55;;;;;;;;;;;;;;;3.70;61.37;97601.44;4987044;28;20017;-78
2022/02/12 07:52:21;;;;;;;;;;;;;;;3.88;61.14;97595.47;4978108;28;20002;-78
2022/02/12 07:54:47;;;;;;;;;;;;;;;3.96;60.07;97580.78;4986136;28;20436;-78
2022/02/12 07:57:13;;;;;;;;;;;;;;;4.01;60.63;97590.72;4984476;28;19977;-77
2022/02/12 07:59:40;;;;;;;;;;;;;;;4.05;59.82;97584.25;4978523;28;20431;-78
2022/02/12 08:02:06;;;;;;;;;;;;;;;4.09;60.28;97588.19;4976911;28;19954;-77
2022/02/12 08:04:32;;;;;;;;;;;;;;;4.20;60.51;97595.78;4983189;28;19958;-77
2022/02/12 08:09:42;;;;;;;;;;;;;;;4.06;60.39;97593.69;4987280;28;19956;-77
2022/02/12 08:12:14;;;;;;;;;;;;;;;3.86;60.35;97599.03;4984314;28;20327;-77
2022/02/12 08:14:45;;;;;;;;;;;;;;;3.93;60.85;97595.84;4984905;28;19954;-77
2022/02/12 08:17:12;;;;;;;;;;;;;;;4.13;61.26;97605.09;4985569;28;19958;-76
2022/02/12 08:19:38;;;;;;;;;;;;;;;4.37;61.00;97601.13;4976724;28;19965;-77
2022/02/12 08:22:05;;;;;;;;;;;;;;;4.54;59.21;97571.69;4982828;28;19957;-76
2022/02/12 08:24:31;;;;;;;;;;;;;;;4.71;59.48;97583.00;4990583;28;19956;-76
2022/02/12 08:26:57;;;;;;;;;;;;;;;4.84;56.91;97554.00;4988952;28;20011;-77
2022/02/12 08:29:26;;;;;;;;;;;;;;;4.94;58.82;97582.50;4985334;28;19977;-76
2022/02/12 08:31:52;;;;;;;;;;;;;;;5.03;58.31;97573.75;4983372;28;20311;-76
2022/02/12 08:34:18;;;;;;;;;;;;;;;5.15;58.15;97582.13;4985097;28;19959;-76
2022/02/12 08:36:44;;;;;;;;;;;;;;;5.33;57.56;97577.63;4984528;28;19999;-76
2022/02/12 08:39:09;;;;;;;;;;;;;;;5.52;57.67;97575.75;4987665;28;19958;-76
2022/02/12 08:41:35;;;;;;;;;;;;;;;5.78;55.86;97552.25;4985052;28;20145;-76
2022/02/12 08:44:01;;;;;;;;;;;;;;;5.91;55.74;97542.16;4983177;28;20066;-75
2022/02/12 08:46:27;;;;;;;;;;;;;;;6.09;56.43;97553.28;4980308;28;20482;-75
2022/02/12 08:48:53;;;;;;;;;;;;;;;6.06;56.61;97550.19;4988080;28;19964;-75
2022/02/12 08:51:19;;;;;;;;;;;;;;;5.96;55.61;97541.72;4990410;28;20375;-75
2022/02/12 08:53:45;;;;;;;;;;;;;;;5.82;55.40;97536.13;4986070;28;20405;-75
2022/02/12 08:56:11;;;;;;;;;;;;;;;5.71;56.68;97546.84;4986408;28;20042;-75
2022/02/12 08:58:36;;;;;;;;;;;;;;;5.83;55.87;97535.16;4992149;28;20003;-74
2022/02/12 09:01:02;;;;;;;;;;;;;;;5.83;54.75;97513.53;4984201;28;20070;-75
2022/02/12 09:03:28;;;;;;;;;;;;;;;5.75;56.28;97535.13;4983723;28;19961;-76
2022/02/12 09:05:54;;;;;;;;;;;;;;;5.78;55.77;97532.22;4989929;28;20019;-75
2022/02/12 09:08:20;;;;;;;;;;;;;;;5.87;55.94;97528.66;4988070;28;20017;-75
2022/02/12 09:10:47;;;;;;;;;;;;;;;5.87;54.78;97502.63;4988734;28;20010;-75
2022/02/12 09:13:13;;;;;;;;;;;;;;;5.83;55.63;97514.31;4984649;28;19967;-75
2022/02/12 09:15:39;;;;;;;;;;;;;;;5.74;54.26;97499.69;4986222;28;19965;-75
2022/02/12 09:18:05;;;;;;;;;;;;;;;5.53;52.63;97476.72;4986376;28;20449;-75
2022/02/12 09:20:31;;;;;;;;;;;;;;;5.45;53.68;97495.72;4992587;28;19954;-75
2022/02/12 09:22:57;;;;;;;;;;;;;;;5.41;56.76;97530.03;4989295;28;20312;-76
2022/02/12 09:25:23;;;;;;;;;;;;;;;5.54;56.61;97524.38;4988586;28;20022;-75
2022/02/12 09:27:49;;;;;;;;;;;;;;;5.78;57.72;97547.84;4983165;28;20418;-75
2022/02/12 09:30:15;;;;;;;;;;;;;;;5.92;54.44;97496.91;4988672;28;20024;-75
2022/02/12 09:32:41;;;;;;;;;;;;;;;6.02;55.73;97512.41;4987016;28;19956;-75
2022/02/12 09:35:06;;;;;;;;;;;;;;;6.11;55.34;97508.84;4988045;28;20001;-75
2022/02/12 09:37:32;;;;;;;;;;;;;;;6.19;54.99;97493.19;4980410;28;20395;-75
2022/02/12 09:39:58;;;;;;;;;;;;;;;6.26;54.63;97496.78;4989312;28;20071;-75
2022/02/12 09:42:25;;;;;;;;;;;;;;;6.29;56.31;97517.28;4990752;28;20005;-75
2022/02/12 09:44:51;;;;;;;;;;;;;;;6.31;55.34;97501.50;4985035;28;19968;-75
2022/02/12 09:47:36;;;;;;;;;;;;;;;6.24;55.78;97490.94;4981838;28;19961;-75
2022/02/12 09:50:02;;;;;;;;;;;;;;;6.24;55.18;97492.72;4987124;28;19975;-75
2022/02/12 09:52:29;;;;;;;;;;;;;;;6.06;55.43;97487.69;4993076;28;19983;-76
2022/02/12 09:54:55;;;;;;;;;;;;;;;5.98;55.72;97493.69;4988482;28;19984;-75
2022/02/12 09:57:22;;;;;;;;;;;;;;;6.07;56.10;97494.53;4983795;28;20026;-75
2022/02/12 09:59:47;;;;;;;;;;;;;;;6.19;56.76;97497.59;4980892;28;19970;-75
2022/02/12 10:02:17;;;;;;;;;;;;;;;6.23;55.02;97478.88;4990451;28;20352;-75
2022/02/12 10:04:43;;;;;;;;;;;;;;;6.22;52.43;97451.22;4986389;28;19949;-75
2022/02/12 10:07:22;;;;;;;;;;;;;;;6.07;53.88;97464.09;4984670;28;20378;-76
2022/02/12 10:10:08;;;;;;;;;;;;;;;6.14;53.55;97460.84;4988409;28;19978;-75
2022/02/12 10:12:34;;;;;;;;;;;;;;;6.13;54.26;97462.59;4978235;28;19952;-75
2022/02/12 10:15:00;;;;;;;;;;;;;;;6.15;54.52;97470.25;4983560;28;20015;-75
2022/02/12 10:17:26;;;;;;;;;;;;;;;6.06;54.40;97459.84;4983444;28;19969;-75
2022/02/12 10:19:52;;;;;;;;;;;;;;;6.11;53.08;97441.16;4985537;28;19971;-75
2022/02/12 10:22:19;;;;;;;;;;;;;;;6.17;52.00;97427.44;4990250;28;19958;-75
2022/02/12 10:24:53;;;;;;;;;;;;;;;6.10;52.74;97440.31;4988967;28;19966;-76
2022/02/12 10:27:28;;;;;;;;;;;;;;;5.89;51.79;97419.16;4969324;28;20062;-75
2022/02/12 10:29:55;;;;;;;;;;;;;;;5.85;54.12;97446.47;4984909;28;19971;-75
2022/02/12 10:32:22;;;;;;;;;;;;;;;5.92;54.71;97454.44;4987442;28;20320;-75
2022/02/12 10:34:48;;;;;;;;;;;;;;;5.87;53.44;97421.09;4986885;28;19960;-75
2022/02/12 10:37:19;;;;;;;;;;;;;;;5.90;54.22;97433.81;4988260;28;20321;-75
2022/02/12 10:39:49;;;;;;;;;;;;;;;6.03;52.99;97418.53;4986883;28;20034;-75
2022/02/12 10:42:18;;;;;;;;;;;;;;;6.08;50.56;97389.38;4981038;28;20338;-75
2022/02/12 10:44:45;;;;;;;;;;;;;;;6.13;51.02;97391.47;4990164;28;19965;-75
2022/02/12 10:47:13;;;;;;;;;;;;;;;6.22;51.37;97380.06;4985858;28;19956;-75
2022/02/12 10:49:42;;;;;;;;;;;;;;;6.26;51.95;97381.38;4986110;28;19968;-75
2022/02/12 10:52:08;;;;;;;;;;;;;;;6.32;50.39;97359.03;4986174;28;19963;-75
2022/02/12 10:54:47;;;;;;;;;;;;;;;6.27;47.80;97338.69;4984345;28;19983;-75
2022/02/12 10:57:14;;;;;;;;;;;;;;;6.23;50.30;97363.47;4982546;28;19959;-75
2022/02/12 10:59:44;;;;;;;;;;;;;;;6.30;50.90;97364.44;4986815;28;19958;-75
2022/02/12 11:02:13;;;;;;;;;;;;;;;6.38;48.93;97343.53;4986612;28;19962;-75
2022/02/12 11:04:40;;;;;;;;;;;;;;;6.29;48.64;97342.75;4984650;28;19954;-76
2022/02/12 11:07:07;;;;;;;;;;;;;;;6.38;48.95;97340.94;4984595;28;19968;-76
2022/02/12 11:09:33;;;;;;;;;;;;;;;6.45;46.30;97372.34;4988964;28;19961;-75
2022/02/12 11:12:03;;;;;;;;;;;;;;;6.49;48.89;97394.50;4984398;28;19957;-76
2022/02/12 11:14:32;;;;;;;;;;;;;;;6.38;46.43;97442.53;4985405;28;20007;-76
2022/02/12 11:17:19;;;;;;;;;;;;;;;6.19;46.56;97440.31;4986290;28;19963;-76
2022/02/12 11:19:47;;;;;;;;;;;;;;;6.05;47.85;97434.78;4956172;28;19952;-76
2022/02/12 11:22:14;;;;;;;;;;;;;;;5.98;49.55;97444.22;4984965;28;19975;-76
2022/02/12 11:24:43;;;;;;;;;;;;;;;6.08;48.50;97433.66;4981031;28;20309;-77
2022/02/12 11:27:15;;;;;;;;;;;;;;;6.34;48.51;97430.84;4983899;28;20311;-77
2022/02/12 11:29:42;;;;;;;;;;;;;;;6.39;48.27;97415.50;4990148;28;19983;-77
2022/02/12 11:32:08;;;;;;;;;;;;;;;6.57;45.33;97393.63;4964512;28;19951;-76
2022/02/12 11:34:34;;;;;;;;;;;;;;;6.74;47.22;97397.81;4977428;28;19955;-76
2022/02/12 11:37:13;;;;;;;;;;;;;;;6.88;45.98;97389.25;4989645;28;19961;-76
2022/02/12 11:39:39;;;;;;;;;;;;;;;6.94;47.20;97387.75;4989702;28;19974;-76
2022/02/12 11:42:06;;;;;;;;;;;;;;;7.03;45.39;97363.25;4979040;28;20394;-76
2022/02/12 11:44:43;;;;;;;;;;;;;;;7.09;47.35;97377.41;4986765;28;20408;-76
2022/02/12 11:47:09;;;;;;;;;;;;;;;7.06;47.15;97365.53;4987306;28;20063;-76
2022/02/12 11:49:35;;;;;;;;;;;;;;;6.86;44.42;97343.47;4970873;28;20018;-77
2022/02/12 11:52:06;;;;;;;;;;;;;;;6.73;44.68;97345.84;4989176;28;20478;-77
2022/02/12 11:54:45;;;;;;;;;;;;;;;6.77;43.22;97339.31;4961935;28;20349;-76
2022/02/12 11:57:14;;;;;;;;;;;;;;;6.76;45.52;97358.50;4982388;28;19958;-76
2022/02/12 11:59:40;;;;;;;;;;;;;;;6.84;44.71;97348.84;4982826;28;19967;-76
2022/02/12 12:02:06;;;;;;;;;;;;;;;6.89;43.83;97340.53;4983226;28;19983;-76
2022/02/12 12:04:33;;;;;;;;;;;;;;;7.09;46.56;97352.13;4983309;28;19963;-76
2022/02/12 12:06:58;;;;;;;;;;;;;;;7.24;43.36;97344.34;4982272;28;19970;-76
2022/02/12 12:09:31;;;;;;;;;;;;;;;7.29;45.22;97349.06;4984312;28;19983;-76
2022/02/12 12:12:15;;;;;;;;;;;;;;;7.29;43.21;97347.28;4983615;28;19965;-76
2022/02/12 12:14:42;;;;;;;;;;;;;;;7.26;43.54;97326.72;4967855;28;19958;-76
2022/02/12 12:17:08;;;;;;;;;;;;;;;7.27;42.89;97336.19;4980258;28;19966;-78
2022/02/12 12:19:39;;;;;;;;;;;;;;;7.36;44.61;97343.97;4983511;28;19967;-76
2022/02/12 12:22:06;;;;;;;;;;;;;;;7.49;42.18;97329.31;4995688;28;19965;-78
2022/02/12 12:24:32;;;;;;;;;;;;;;;7.43;41.53;97330.03;4974685;28;20338;-76
2022/02/12 12:26:58;;;;;;;;;;;;;;;7.40;43.99;97361.69;4991144;28;19962;-76
2022/02/12 12:32:10;;;;;;;;;;;;;;;7.30;43.73;97382.00;4991633;28;20317;-76
2022/02/12 12:34:47;;;;;;;;;;;;;;;7.18;42.66;97389.44;4984986;28;20339;-76
2022/02/12 12:37:13;;;;;;;;;;;;;;;7.18;43.13;97396.41;4989322;28;19962;-76
2022/02/12 12:39:39;;;;;;;;;;;;;;;7.25;44.22;97389.53;4976656;28;20059;-76
2022/02/12 12:42:13;;;;;;;;;;;;;;;7.31;40.81;97391.47;4995092;28;20038;-76
2022/02/12 12:44:39;;;;;;;;;;;;;;;7.30;43.78;97389.81;4989805;28;19954;-76
2022/02/12 12:47:05;;;;;;;;;;;;;;;7.32;43.89;97380.03;4987662;28;19960;-76
2022/02/12 12:49:33;;;;;;;;;;;;;;;7.34;42.55;97383.28;4976465;28;19970;-76
2022/02/12 12:52:00;;;;;;;;;;;;;;;7.28;41.85;97376.94;4989856;28;19953;-76
2022/02/12 12:54:52;;;;;;;;;;;;;;;7.28;42.37;97384.75;4987023;28;19989;-76
2022/02/12 12:57:24;;;;;;;;;;;;;;;7.30;42.95;97379.38;4984238;28;19973;-76
2022/02/12 12:59:52;;;;;;;;;;;;;;;7.33;40.00;97373.84;4991149;28;19951;-76